createdAt,value
2022-12-31T00:01:44.903Z,93.40
2022-12-31T00:04:12.655Z,93.40
2022-12-31T00:06:41.968Z,93.30
2022-12-31T00:09:11.453Z,93.30
2022-12-31T00:11:39.760Z,93.30
2022-12-31T00:14:07.900Z,93.30
2022-12-31T00:16:38.281Z,93.40
2022-12-31T00:19:08.011Z,93.40
2022-12-31T00:21:36.491Z,93.40
2022-12-31T00:24:07.519Z,93.40
2022-12-31T00:26:35.974Z,93.40
2022-12-31T00:29:04.306Z,93.40
2022-12-31T00:31:33.790Z,93.40
2022-12-31T00:34:01.628Z,93.40
2022-12-31T00:36:32.335Z,93.40
2022-12-31T00:39:01.677Z,93.50
2022-12-31T00:41:30.894Z,93.50
2022-12-31T00:43:59.005Z,93.50
2022-12-31T00:46:27.096Z,93.70
2022-12-31T00:48:54.916Z,93.70
2022-12-31T00:51:28.215Z,93.60
2022-12-31T00:53:56.423Z,93.70
2022-12-31T00:56:26.476Z,93.60
2022-12-31T00:58:56.009Z,93.60
2022-12-31T01:01:26.522Z,93.60
2022-12-31T01:03:57.124Z,93.90
2022-12-31T01:06:25.022Z,93.60
2022-12-31T01:08:55.157Z,93.60
2022-12-31T01:11:23.964Z,93.70
2022-12-31T01:13:54.192Z,93.70
2022-12-31T01:16:25.306Z,93.70
2022-12-31T01:18:53.392Z,93.80
2022-12-31T01:21:22.133Z,93.70
2022-12-31T01:23:50.016Z,93.70
2022-12-31T01:26:19.145Z,93.70
2022-12-31T01:28:47.066Z,93.70
2022-12-31T01:31:17.341Z,93.70
2022-12-31T01:33:47.082Z,93.80
2022-12-31T01:36:25.075Z,93.70
2022-12-31T01:38:54.444Z,93.70
2022-12-31T01:41:24.879Z,93.70
2022-12-31T01:43:55.087Z,93.80
2022-12-31T01:46:29.261Z,94.10
2022-12-31T01:49:03.478Z,93.90
2022-12-31T01:51:34.635Z,93.80
2022-12-31T01:54:05.469Z,93.80
2022-12-31T01:56:35.815Z,93.80
2022-12-31T01:59:07.610Z,93.80
2022-12-31T02:01:38.672Z,93.80
2022-12-31T02:04:10.270Z,93.80
2022-12-31T02:06:42.421Z,93.80
2022-12-31T02:09:10.520Z,93.80
2022-12-31T02:11:38.287Z,93.80
2022-12-31T02:14:09.337Z,93.80
2022-12-31T02:16:50.965Z,93.80
2022-12-31T02:19:45.761Z,93.90
2022-12-31T02:22:23.650Z,93.80
2022-12-31T02:25:17.873Z,93.80
2022-12-31T02:27:57.807Z,93.80
2022-12-31T02:30:29.638Z,93.90
2022-12-31T02:33:14.076Z,93.90
2022-12-31T02:35:48.589Z,93.80
2022-12-31T02:38:21.779Z,93.90
2022-12-31T02:40:50.032Z,93.80
2022-12-31T02:43:17.809Z,93.80
2022-12-31T02:45:51.481Z,94.20
2022-12-31T02:48:35.744Z,93.80
2022-12-31T02:51:20.088Z,93.80
2022-12-31T02:54:02.781Z,93.80
2022-12-31T02:56:37.307Z,93.90
2022-12-31T02:59:29.978Z,93.80
2022-12-31T03:02:16.411Z,93.90
2022-12-31T03:04:48.470Z,93.90
2022-12-31T03:07:20.532Z,93.80
2022-12-31T03:09:48.369Z,93.80
2022-12-31T03:12:34.917Z,93.80
2022-12-31T03:15:06.509Z,93.80
2022-12-31T03:17:35.781Z,93.80
2022-12-31T03:20:21.195Z,93.80
2022-12-31T03:22:48.944Z,93.80
2022-12-31T03:25:33.409Z,93.90
2022-12-31T03:28:02.800Z,93.90
2022-12-31T03:30:31.828Z,93.90
2022-12-31T03:33:01.310Z,93.90
2022-12-31T03:35:30.693Z,94.00
2022-12-31T03:37:58.475Z,94.00
2022-12-31T03:40:28.305Z,93.90
2022-12-31T03:42:56.189Z,94.00
2022-12-31T03:45:24.533Z,94.00
2022-12-31T03:47:52.274Z,94.00
2022-12-31T03:50:21.769Z,93.90
2022-12-31T03:52:49.515Z,93.90
2022-12-31T03:55:17.275Z,93.90
2022-12-31T03:57:45.011Z,93.90
2022-12-31T04:00:16.962Z,93.90
2022-12-31T04:02:44.769Z,93.90
2022-12-31T04:05:12.976Z,93.80
2022-12-31T04:07:42.612Z,93.90
2022-12-31T04:10:12.948Z,93.90
2022-12-31T04:12:41.087Z,93.80
2022-12-31T04:15:10.966Z,93.80
2022-12-31T04:17:38.992Z,93.80
2022-12-31T04:20:07.868Z,93.90
2022-12-31T04:22:35.572Z,93.90
2022-12-31T04:25:05.418Z,93.80
2022-12-31T04:27:33.244Z,93.80
2022-12-31T04:30:01.009Z,93.80
2022-12-31T04:32:28.807Z,93.80
2022-12-31T04:34:56.521Z,93.80
2022-12-31T04:37:24.245Z,93.80
2022-12-31T04:39:51.964Z,93.80
2022-12-31T04:42:21.041Z,93.90
2022-12-31T04:44:48.787Z,93.90
2022-12-31T04:47:21.847Z,93.80
2022-12-31T04:49:51.556Z,93.80
2022-12-31T04:52:19.409Z,93.80
2022-12-31T04:54:47.217Z,93.80
2022-12-31T04:57:14.990Z,93.80
2022-12-31T04:59:44.147Z,93.80
2022-12-31T05:02:12.193Z,93.80
2022-12-31T05:04:40.084Z,93.80
2022-12-31T05:07:07.872Z,94.10
2022-12-31T05:09:35.687Z,93.80
2022-12-31T05:12:03.459Z,93.90
2022-12-31T05:14:31.201Z,93.90
2022-12-31T05:17:01.086Z,93.90
2022-12-31T05:19:28.956Z,93.90
2022-12-31T05:22:14.274Z,93.90
2022-12-31T05:24:42.042Z,93.90
2022-12-31T05:27:09.802Z,93.90
2022-12-31T05:29:37.555Z,93.90
2022-12-31T05:32:06.704Z,93.90
2022-12-31T05:34:34.474Z,93.90
2022-12-31T05:37:02.223Z,93.90
2022-12-31T05:39:31.189Z,93.90
2022-12-31T05:41:58.954Z,93.90
2022-12-31T05:44:26.909Z,94.00
2022-12-31T05:46:54.703Z,94.00
2022-12-31T05:49:23.781Z,94.00
2022-12-31T05:51:51.453Z,94.00
2022-12-31T05:54:19.431Z,94.00
2022-12-31T05:56:47.289Z,94.00
2022-12-31T05:59:15.073Z,94.00
2022-12-31T06:01:42.859Z,94.00
2022-12-31T06:04:10.705Z,94.00
2022-12-31T06:06:39.775Z,94.10
2022-12-31T06:09:07.652Z,94.00
2022-12-31T06:11:35.399Z,94.00
2022-12-31T06:14:04.261Z,94.00
2022-12-31T06:16:31.984Z,94.00
2022-12-31T06:18:59.772Z,94.00
2022-12-31T06:21:27.476Z,94.00
2022-12-31T06:23:57.099Z,94.00
2022-12-31T06:26:24.856Z,94.00
2022-12-31T06:28:52.675Z,94.00
2022-12-31T06:31:20.786Z,94.00
2022-12-31T06:33:48.559Z,94.00
2022-12-31T06:36:17.320Z,94.00
2022-12-31T06:38:45.465Z,94.40
2022-12-31T06:41:15.833Z,94.00
2022-12-31T06:43:44.444Z,94.00
2022-12-31T06:46:14.028Z,94.10
2022-12-31T06:48:44.746Z,94.00
2022-12-31T06:51:17.201Z,94.00
2022-12-31T06:53:45.690Z,94.10
2022-12-31T06:56:18.483Z,94.00
2022-12-31T06:58:47.544Z,94.00
2022-12-31T07:01:37.943Z,94.00
2022-12-31T07:04:27.473Z,94.10
2022-12-31T07:07:03.511Z,94.10
2022-12-31T07:09:39.032Z,94.10
2022-12-31T07:12:15.297Z,94.10
2022-12-31T07:14:47.564Z,94.10
2022-12-31T07:17:30.784Z,94.10
2022-12-31T07:20:03.828Z,94.10
2022-12-31T07:22:32.215Z,94.10
2022-12-31T07:25:00.939Z,94.10
2022-12-31T07:27:56.043Z,94.10
2022-12-31T07:30:30.870Z,94.10
2022-12-31T07:33:21.725Z,94.10
2022-12-31T07:35:57.811Z,94.40
2022-12-31T07:38:32.773Z,94.40
2022-12-31T07:41:10.760Z,94.00
2022-12-31T07:43:54.046Z,94.10
2022-12-31T07:46:29.486Z,94.10
2022-12-31T07:48:58.909Z,94.10
2022-12-31T07:51:27.719Z,94.10
2022-12-31T07:53:55.507Z,94.10
2022-12-31T07:56:23.294Z,94.10
2022-12-31T07:59:03.480Z,94.10
2022-12-31T08:01:36.274Z,94.40
2022-12-31T08:04:10.495Z,94.10
2022-12-31T08:06:44.922Z,94.20
2022-12-31T08:09:25.189Z,94.20
2022-12-31T08:11:57.528Z,94.20
2022-12-31T08:14:28.154Z,94.20
2022-12-31T08:16:57.553Z,94.20
2022-12-31T08:19:28.569Z,94.20
2022-12-31T08:22:14.460Z,94.20
2022-12-31T08:24:52.662Z,94.20
2022-12-31T08:27:29.820Z,94.20
2022-12-31T08:30:06.204Z,94.20
2022-12-31T08:32:41.137Z,94.20
2022-12-31T08:35:19.795Z,94.20
2022-12-31T08:37:55.391Z,94.30
2022-12-31T08:40:27.780Z,94.30
2022-12-31T08:43:13.548Z,94.30
2022-12-31T08:45:47.359Z,94.30
2022-12-31T08:48:24.209Z,94.30
2022-12-31T08:50:52.411Z,94.30
2022-12-31T08:53:20.705Z,94.40
2022-12-31T08:55:50.808Z,94.40
2022-12-31T08:58:31.359Z,94.30
2022-12-31T09:01:00.749Z,94.40
2022-12-31T09:03:43.335Z,94.40
2022-12-31T09:06:20.000Z,94.50
2022-12-31T09:08:54.729Z,94.40
2022-12-31T09:11:29.708Z,94.40
2022-12-31T09:14:22.633Z,94.40
2022-12-31T09:17:00.165Z,94.50
2022-12-31T09:19:28.431Z,94.50
2022-12-31T09:21:56.839Z,94.60
2022-12-31T09:24:25.187Z,94.60
2022-12-31T09:27:04.460Z,94.60
2022-12-31T09:29:43.336Z,94.60
2022-12-31T09:32:21.385Z,94.60
2022-12-31T09:34:56.927Z,94.50
2022-12-31T09:37:37.430Z,94.60
2022-12-31T09:40:36.470Z,94.60
2022-12-31T09:43:40.896Z,94.60
2022-12-31T09:46:47.358Z,94.50
2022-12-31T09:49:38.253Z,94.50
2022-12-31T09:52:16.371Z,94.50
2022-12-31T09:54:54.160Z,94.50
2022-12-31T09:57:40.605Z,94.50
2022-12-31T10:00:16.396Z,94.50
2022-12-31T10:03:01.489Z,94.50
2022-12-31T10:05:49.893Z,94.40
2022-12-31T10:08:32.908Z,94.40
2022-12-31T10:11:06.918Z,94.40
2022-12-31T10:13:45.112Z,94.40
2022-12-31T10:16:37.869Z,94.40
2022-12-31T10:19:30.887Z,94.40
2022-12-31T10:22:12.566Z,94.40
2022-12-31T10:24:54.717Z,94.40
2022-12-31T10:27:37.233Z,94.40
2022-12-31T10:30:16.364Z,94.40
2022-12-31T10:32:48.392Z,94.50
2022-12-31T10:35:28.319Z,94.50
2022-12-31T10:38:13.685Z,94.50
2022-12-31T10:41:19.415Z,94.50
2022-12-31T10:44:17.287Z,94.50
2022-12-31T10:47:16.927Z,94.50
2022-12-31T10:50:15.291Z,94.50
2022-12-31T10:53:15.581Z,94.50
2022-12-31T10:56:08.875Z,94.50
2022-12-31T10:58:54.551Z,94.40
2022-12-31T11:01:35.323Z,94.40
2022-12-31T11:04:35.731Z,94.50
2022-12-31T11:07:44.289Z,94.50
2022-12-31T11:10:46.956Z,94.50
2022-12-31T11:13:40.147Z,94.40
2022-12-31T11:16:28.077Z,94.40
2022-12-31T11:19:02.049Z,94.40
2022-12-31T11:21:47.757Z,94.40
2022-12-31T11:24:25.682Z,94.50
2022-12-31T11:27:10.142Z,94.50
2022-12-31T11:29:49.116Z,94.50
2022-12-31T11:32:30.659Z,94.50
2022-12-31T11:35:24.246Z,94.50
2022-12-31T11:37:55.307Z,94.50
2022-12-31T11:40:35.127Z,94.50
2022-12-31T11:43:19.989Z,94.60
2022-12-31T11:46:20.088Z,94.50
2022-12-31T11:49:03.154Z,94.50
2022-12-31T11:51:53.231Z,94.60
2022-12-31T11:54:44.373Z,94.60
2022-12-31T11:57:22.287Z,94.60
2022-12-31T11:59:55.077Z,94.60
2022-12-31T12:02:27.783Z,94.60
2022-12-31T12:04:59.152Z,94.70
2022-12-31T12:07:28.130Z,94.70
2022-12-31T12:09:57.310Z,94.70
2022-12-31T12:12:25.211Z,94.60
2022-12-31T12:14:55.788Z,94.60
2022-12-31T12:17:32.181Z,94.60
2022-12-31T12:20:03.589Z,94.60
2022-12-31T12:22:32.836Z,94.70
2022-12-31T12:25:05.866Z,94.70
2022-12-31T12:27:35.542Z,94.70
2022-12-31T12:30:12.507Z,94.70
2022-12-31T12:32:40.331Z,94.70
2022-12-31T12:35:17.982Z,94.70
2022-12-31T12:37:45.764Z,94.70
2022-12-31T12:40:22.192Z,94.70
2022-12-31T12:42:51.088Z,94.80
2022-12-31T12:45:23.012Z,94.80
2022-12-31T12:47:56.848Z,94.70
2022-12-31T12:50:26.896Z,94.80
2022-12-31T12:53:10.932Z,94.80
2022-12-31T12:55:45.752Z,94.70
2022-12-31T12:58:27.620Z,94.70
2022-12-31T13:01:05.936Z,94.80
2022-12-31T13:07:17.590Z,94.70
2022-12-31T13:10:00.608Z,94.70
2022-12-31T13:13:05.193Z,94.80
2022-12-31T13:15:28.338Z,94.70
2022-12-31T13:18:08.799Z,94.70
2022-12-31T13:20:45.787Z,94.70
2022-12-31T13:23:20.532Z,94.70
2022-12-31T13:26:00.360Z,94.60
2022-12-31T13:28:29.291Z,94.70
2022-12-31T13:31:06.651Z,94.60
2022-12-31T13:33:41.947Z,94.70
2022-12-31T13:36:15.199Z,94.70
2022-12-31T13:38:47.021Z,94.70
2022-12-31T13:41:22.451Z,94.70
2022-12-31T13:43:57.588Z,94.80
2022-12-31T13:46:40.736Z,94.80
2022-12-31T13:49:17.885Z,94.80
2022-12-31T13:51:47.530Z,94.80
2022-12-31T13:54:31.921Z,94.80
2022-12-31T13:57:04.794Z,94.80
2022-12-31T13:59:37.347Z,94.70
2022-12-31T14:02:16.807Z,94.70
2022-12-31T14:04:49.939Z,94.70
2022-12-31T14:07:22.330Z,94.70
2022-12-31T14:09:50.681Z,94.70
2022-12-31T14:12:29.537Z,94.80
2022-12-31T14:15:08.428Z,94.80
2022-12-31T14:17:44.339Z,94.80
2022-12-31T14:20:24.374Z,94.80
2022-12-31T14:23:02.889Z,94.80
2022-12-31T14:25:37.328Z,94.80
2022-12-31T14:28:07.820Z,94.80
2022-12-31T14:30:40.613Z,94.80
2022-12-31T14:33:26.117Z,94.80
2022-12-31T14:36:10.160Z,94.80
2022-12-31T14:38:56.065Z,94.80
2022-12-31T14:41:45.723Z,94.80
2022-12-31T14:44:27.939Z,94.80
2022-12-31T14:47:07.365Z,94.70
2022-12-31T14:49:47.619Z,94.70
2022-12-31T14:52:25.115Z,94.80
2022-12-31T14:55:00.667Z,94.70
2022-12-31T14:58:01.681Z,94.70
2022-12-31T15:00:31.327Z,95.00
2022-12-31T15:03:01.020Z,95.00
2022-12-31T15:05:30.690Z,94.60
2022-12-31T15:08:25.891Z,94.60
2022-12-31T15:11:13.037Z,94.60
2022-12-31T15:13:55.994Z,94.50
2022-12-31T15:16:37.236Z,94.50
2022-12-31T15:19:43.535Z,94.50
2022-12-31T15:22:22.657Z,94.50
2022-12-31T15:24:51.808Z,94.50
2022-12-31T15:27:31.887Z,94.50
2022-12-31T15:30:00.887Z,94.50
2022-12-31T15:32:36.561Z,94.50
2022-12-31T15:35:24.539Z,94.50
2022-12-31T15:38:00.797Z,94.50
2022-12-31T15:40:30.638Z,94.50
2022-12-31T15:43:02.278Z,94.50
2022-12-31T15:45:34.825Z,94.50
2022-12-31T15:48:08.266Z,94.50
2022-12-31T15:50:37.683Z,94.50
2022-12-31T15:53:07.656Z,94.50
2022-12-31T15:55:41.479Z,94.50
2022-12-31T15:58:13.492Z,94.50
2022-12-31T16:00:57.029Z,94.50
2022-12-31T16:03:30.736Z,94.50
2022-12-31T16:06:02.088Z,94.50
2022-12-31T16:08:32.483Z,94.50
2022-12-31T16:11:02.305Z,94.50
2022-12-31T16:13:31.238Z,94.50
2022-12-31T16:16:02.851Z,94.50
2022-12-31T16:18:38.484Z,94.50
2022-12-31T16:21:06.835Z,94.50
2022-12-31T16:23:40.408Z,94.50
2022-12-31T16:26:12.433Z,94.50
2022-12-31T16:28:40.195Z,94.50
2022-12-31T16:31:15.003Z,94.50
2022-12-31T16:33:42.854Z,94.60
2022-12-31T16:36:21.026Z,94.50
2022-12-31T16:38:49.100Z,94.60
2022-12-31T16:41:20.259Z,94.60
2022-12-31T16:43:49.749Z,94.60
2022-12-31T16:46:20.919Z,94.60
2022-12-31T16:48:53.029Z,94.60
2022-12-31T16:51:23.674Z,94.60
2022-12-31T16:53:51.686Z,94.60
2022-12-31T16:56:30.246Z,94.60
2022-12-31T16:59:03.151Z,94.60
2022-12-31T17:01:34.527Z,94.60
2022-12-31T17:04:05.685Z,94.60
2022-12-31T17:06:33.810Z,94.60
2022-12-31T17:09:14.441Z,94.60
2022-12-31T17:11:51.497Z,94.60
2022-12-31T17:14:22.893Z,94.60
2022-12-31T17:17:03.008Z,94.60
2022-12-31T17:19:37.557Z,94.60
2022-12-31T17:22:08.327Z,94.60
2022-12-31T17:24:36.841Z,94.60
2022-12-31T17:27:08.367Z,94.70
2022-12-31T17:29:36.813Z,94.70
2022-12-31T17:32:06.621Z,94.70
2022-12-31T17:34:40.079Z,94.70
2022-12-31T17:37:19.450Z,94.70
2022-12-31T17:39:52.285Z,94.70
2022-12-31T17:42:31.455Z,94.70
2022-12-31T17:45:01.785Z,94.60
2022-12-31T17:47:37.922Z,94.50
2022-12-31T17:50:19.019Z,94.60
2022-12-31T17:52:47.356Z,94.50
2022-12-31T17:55:15.251Z,94.60
2022-12-31T17:57:50.689Z,94.50
2022-12-31T18:00:20.863Z,94.50
2022-12-31T18:02:49.779Z,94.50
2022-12-31T18:05:19.519Z,94.50
2022-12-31T18:07:47.517Z,94.60
2022-12-31T18:10:17.442Z,94.60
2022-12-31T18:12:48.552Z,94.60
2022-12-31T18:15:17.704Z,94.60
2022-12-31T18:17:45.882Z,94.60
2022-12-31T18:20:13.964Z,94.90
2022-12-31T18:22:43.115Z,94.60
2022-12-31T18:25:14.720Z,94.60
2022-12-31T18:27:42.514Z,94.60
2022-12-31T18:30:13.435Z,94.60
2022-12-31T18:32:42.941Z,94.60
2022-12-31T18:35:40.382Z,94.60
2022-12-31T18:38:04.487Z,94.70
2022-12-31T18:40:32.985Z,94.70
2022-12-31T18:43:04.887Z,94.60
2022-12-31T18:45:34.329Z,94.70
2022-12-31T18:48:02.077Z,94.70
2022-12-31T18:50:29.850Z,94.70
2022-12-31T18:52:57.640Z,94.70
2022-12-31T18:55:29.664Z,94.70
2022-12-31T18:57:57.440Z,94.80
2022-12-31T19:00:25.376Z,94.80
2022-12-31T19:02:54.471Z,94.80
2022-12-31T19:05:24.700Z,94.80
2022-12-31T19:07:52.508Z,95.20
2022-12-31T19:10:20.279Z,94.80
2022-12-31T19:12:48.284Z,94.90
2022-12-31T19:15:25.166Z,94.80
2022-12-31T19:17:54.305Z,94.80
2022-12-31T19:20:22.082Z,94.80
2022-12-31T19:22:49.850Z,94.80
2022-12-31T19:25:21.125Z,94.80
2022-12-31T19:27:49.302Z,94.80
2022-12-31T19:30:19.069Z,94.80
2022-12-31T19:32:46.921Z,94.80
2022-12-31T19:35:17.393Z,94.90
2022-12-31T19:37:46.784Z,94.90
2022-12-31T19:40:16.494Z,94.90
2022-12-31T19:42:45.404Z,94.90
2022-12-31T19:45:17.620Z,94.80
2022-12-31T19:47:46.441Z,94.80
2022-12-31T19:50:18.103Z,94.80
2022-12-31T19:52:47.165Z,94.80
2022-12-31T19:55:17.208Z,94.80
2022-12-31T19:57:44.979Z,94.80
2022-12-31T20:00:16.457Z,94.90
2022-12-31T20:02:46.394Z,94.90
2022-12-31T20:05:16.023Z,94.90
2022-12-31T20:07:45.112Z,94.90
2022-12-31T20:10:13.033Z,94.80
2022-12-31T20:12:44.652Z,94.90
2022-12-31T20:15:12.962Z,94.90
2022-12-31T20:17:40.701Z,94.90
2022-12-31T20:20:09.252Z,94.90
2022-12-31T20:22:37.161Z,94.90
2022-12-31T20:25:07.024Z,94.90
2022-12-31T20:27:34.800Z,94.90
2022-12-31T20:30:02.740Z,94.90
2022-12-31T20:32:30.455Z,94.80
2022-12-31T20:34:58.312Z,94.80
2022-12-31T20:37:26.036Z,94.80
2022-12-31T20:39:53.859Z,94.80
2022-12-31T20:42:22.928Z,94.80
2022-12-31T20:44:50.696Z,95.00
2022-12-31T20:47:18.474Z,94.80
2022-12-31T20:50:10.524Z,94.80
2022-12-31T20:52:34.056Z,94.80
2022-12-31T20:55:01.756Z,94.80
2022-12-31T20:57:33.748Z,94.80
2022-12-31T21:00:01.906Z,94.80
2022-12-31T21:02:40.698Z,94.80
2022-12-31T21:05:10.547Z,94.80
2022-12-31T21:07:38.452Z,94.80
2022-12-31T21:10:06.998Z,94.80
2022-12-31T21:12:44.179Z,94.80
2022-12-31T21:15:13.107Z,94.80
2022-12-31T21:17:40.828Z,94.80
2022-12-31T21:20:09.821Z,94.80
2022-12-31T21:22:37.537Z,94.80
2022-12-31T21:25:06.390Z,94.80
2022-12-31T21:27:34.107Z,94.80
2022-12-31T21:30:19.525Z,94.80
2022-12-31T21:32:47.906Z,94.80
2022-12-31T21:35:42.349Z,94.80
2022-12-31T21:38:03.563Z,94.70
2022-12-31T21:40:32.015Z,94.70
2022-12-31T21:42:59.808Z,94.70
2022-12-31T21:45:28.914Z,94.70
2022-12-31T21:48:17.182Z,94.70
2022-12-31T21:50:45.974Z,94.80
2022-12-31T21:53:16.539Z,94.80
2022-12-31T21:56:04.229Z,94.70
2022-12-31T21:58:32.081Z,94.80
2022-12-31T22:01:33.735Z,94.70
2022-12-31T22:04:01.573Z,94.70
2022-12-31T22:06:29.279Z,94.70
2022-12-31T22:08:57.985Z,94.70
2022-12-31T22:11:27.777Z,94.70
2022-12-31T22:13:56.120Z,94.70
2022-12-31T22:16:25.203Z,94.70
2022-12-31T22:18:56.597Z,94.70
2022-12-31T22:21:25.214Z,94.70
2022-12-31T22:23:54.732Z,94.70
2022-12-31T22:26:24.420Z,94.60
2022-12-31T22:28:52.605Z,94.60
2022-12-31T22:31:22.630Z,94.50
2022-12-31T22:33:52.219Z,94.50
2022-12-31T22:36:21.877Z,94.40
2022-12-31T22:38:50.732Z,94.40
2022-12-31T22:41:20.619Z,94.40
2022-12-31T22:43:50.222Z,94.30
2022-12-31T22:46:19.901Z,94.30
2022-12-31T22:48:48.219Z,94.30
2022-12-31T22:51:18.500Z,94.30
2022-12-31T22:53:47.009Z,94.30
2022-12-31T22:56:17.039Z,94.30
2022-12-31T22:58:45.472Z,94.30
2022-12-31T23:01:18.789Z,94.20
2022-12-31T23:03:47.583Z,94.20
2022-12-31T23:06:17.409Z,94.20
2022-12-31T23:09:05.707Z,94.20
2022-12-31T23:11:34.164Z,94.20
2022-12-31T23:14:19.938Z,94.20
2022-12-31T23:17:29.755Z,94.20
2022-12-31T23:20:10.593Z,94.20
2022-12-31T23:22:57.433Z,94.10
2022-12-31T23:25:25.136Z,94.10
2022-12-31T23:27:53.028Z,94.10
2022-12-31T23:30:20.889Z,94.10
2022-12-31T23:32:48.590Z,94.00
2022-12-31T23:35:16.459Z,94.00
2022-12-31T23:37:45.464Z,94.00
2022-12-31T23:40:20.672Z,94.00
2022-12-31T23:42:48.807Z,94.00
2022-12-31T23:45:16.669Z,94.00
2022-12-31T23:47:44.394Z,94.00
2022-12-31T23:50:12.095Z,94.00
2022-12-31T23:52:39.960Z,94.00
2022-12-31T23:55:09.686Z,94.00
2022-12-31T23:57:37.398Z,94.00
